createdAt,value
2019-03-08T00:00:12.506Z,990.41
2019-03-08T00:01:12.488Z,990.41
2019-03-08T00:02:12.478Z,990.38
2019-03-08T00:03:12.491Z,990.62
2019-03-08T00:04:12.455Z,990.52
2019-03-08T00:05:12.440Z,990.46
2019-03-08T00:06:12.430Z,990.91
2019-03-08T00:07:12.420Z,990.63
2019-03-08T00:08:12.434Z,990.68
2019-03-08T00:09:12.399Z,990.55
2019-03-08T00:10:12.395Z,991.11
2019-03-08T00:11:12.377Z,990.76
2019-03-08T00:12:12.370Z,990.56
2019-03-08T00:13:12.389Z,990.76
2019-03-08T00:14:12.341Z,990.65
2019-03-08T00:15:12.330Z,990.61
2019-03-08T00:16:12.328Z,990.66
2019-03-08T00:17:12.309Z,990.74
2019-03-08T00:18:12.338Z,990.59
2019-03-08T00:19:12.285Z,990.68
2019-03-08T00:20:12.379Z,990.74
2019-03-08T00:21:12.261Z,990.87
2019-03-08T00:22:12.259Z,990.61
2019-03-08T00:23:12.294Z,990.83
2019-03-08T00:24:12.230Z,990.74
2019-03-08T00:25:12.231Z,990.68
2019-03-08T00:26:12.201Z,990.62
2019-03-08T00:27:12.202Z,990.85
2019-03-08T00:28:12.216Z,990.72
2019-03-08T00:29:12.168Z,990.69
2019-03-08T00:30:12.158Z,990.88
2019-03-08T00:31:12.147Z,990.79
2019-03-08T00:32:12.133Z,990.89
2019-03-08T00:33:12.190Z,990.91
2019-03-08T00:34:12.114Z,990.86
2019-03-08T00:35:12.103Z,990.95
2019-03-08T00:36:12.085Z,990.89
2019-03-08T00:37:12.094Z,990.93
2019-03-08T00:38:12.069Z,991.04
2019-03-08T00:39:12.085Z,990.97
2019-03-08T00:40:12.041Z,991.31
2019-03-08T00:41:12.031Z,990.96
2019-03-08T00:42:12.018Z,991.10
2019-03-08T00:43:12.045Z,991.18
2019-03-08T00:44:11.996Z,991.16
2019-03-08T00:45:11.997Z,991.12
2019-03-08T00:46:11.985Z,991.09
2019-03-08T00:47:11.964Z,991.53
2019-03-08T00:48:11.964Z,991.15
2019-03-08T00:49:11.971Z,991.22
2019-03-08T00:50:11.945Z,991.42
2019-03-08T00:51:11.931Z,991.31
2019-03-08T00:52:11.909Z,991.19
2019-03-08T00:53:11.894Z,991.22
2019-03-08T00:54:11.906Z,991.29
2019-03-08T00:55:11.876Z,991.32
2019-03-08T00:56:11.874Z,991.32
2019-03-08T00:57:11.860Z,991.38
2019-03-08T00:58:11.845Z,991.40
2019-03-08T00:59:11.855Z,991.49
2019-03-08T01:00:11.828Z,991.54
2019-03-08T01:01:11.804Z,991.50
2019-03-08T01:02:11.796Z,991.42
2019-03-08T01:03:11.785Z,991.43
2019-03-08T01:04:11.809Z,991.62
2019-03-08T01:05:11.758Z,991.50
2019-03-08T01:06:11.748Z,991.53
2019-03-08T01:07:11.742Z,991.45
2019-03-08T01:08:11.732Z,991.55
2019-03-08T01:09:11.710Z,991.43
2019-03-08T01:10:11.730Z,991.46
2019-03-08T01:11:11.693Z,991.48
2019-03-08T01:12:11.683Z,991.41
2019-03-08T01:13:11.664Z,991.54
2019-03-08T01:14:11.654Z,991.48
2019-03-08T01:15:11.682Z,991.59
2019-03-08T01:16:11.629Z,991.49
2019-03-08T01:17:11.618Z,991.60
2019-03-08T01:18:11.618Z,991.43
2019-03-08T01:19:11.609Z,991.51
2019-03-08T01:20:11.628Z,991.55
2019-03-08T01:21:11.577Z,991.59
2019-03-08T01:22:11.575Z,991.60
2019-03-08T01:23:11.560Z,991.53
2019-03-08T01:24:11.545Z,991.59
2019-03-08T01:25:11.560Z,991.65
2019-03-08T01:26:11.519Z,991.57
2019-03-08T01:27:11.506Z,991.66
2019-03-08T01:28:11.504Z,991.65
2019-03-08T01:29:11.485Z,991.67
2019-03-08T01:30:11.515Z,991.81
2019-03-08T01:31:11.471Z,991.96
2019-03-08T01:32:11.460Z,991.77
2019-03-08T01:33:11.442Z,991.86
2019-03-08T01:34:11.431Z,991.75
2019-03-08T01:35:11.448Z,991.81
2019-03-08T01:36:11.402Z,991.69
2019-03-08T01:37:11.393Z,991.87
2019-03-08T01:38:11.382Z,991.89
2019-03-08T01:39:11.444Z,991.87
2019-03-08T01:40:11.361Z,991.85
2019-03-08T01:41:11.511Z,992.03
2019-03-08T01:42:11.338Z,991.92
2019-03-08T01:43:11.370Z,991.89
2019-03-08T01:44:11.326Z,991.91
2019-03-08T01:45:11.357Z,992.02
2019-03-08T01:46:11.321Z,991.99
2019-03-08T01:47:11.366Z,992.08
2019-03-08T01:48:11.279Z,992.13
2019-03-08T01:49:11.368Z,992.14
2019-03-08T01:50:11.260Z,992.18
2019-03-08T01:51:11.325Z,992.15
2019-03-08T01:52:18.040Z,992.24
2019-03-08T01:53:11.271Z,992.26
2019-03-08T01:54:26.040Z,992.26
2019-03-08T01:55:11.222Z,992.36
2019-03-08T01:56:11.207Z,992.54
2019-03-08T01:57:11.174Z,992.52
2019-03-08T01:58:11.164Z,992.56
2019-03-08T01:59:11.149Z,992.75
2019-03-08T02:00:11.137Z,992.90
2019-03-08T02:01:11.154Z,992.74
2019-03-08T02:02:11.117Z,992.78
2019-03-08T02:03:11.113Z,992.80
2019-03-08T02:04:11.151Z,992.71
2019-03-08T02:05:11.082Z,992.69
2019-03-08T02:06:11.092Z,992.80
2019-03-08T02:07:11.058Z,992.99
2019-03-08T02:08:11.055Z,992.73
2019-03-08T02:09:11.035Z,992.78
2019-03-08T02:10:11.026Z,992.84
2019-03-08T02:11:11.047Z,992.90
2019-03-08T02:12:11.029Z,992.90
2019-03-08T02:13:10.993Z,992.64
2019-03-08T02:14:10.981Z,992.96
2019-03-08T02:15:10.975Z,992.81
2019-03-08T02:16:10.965Z,992.86
2019-03-08T02:17:10.992Z,992.92
2019-03-08T02:18:10.936Z,992.87
2019-03-08T02:19:10.936Z,992.96
2019-03-08T02:20:10.914Z,993.01
2019-03-08T02:21:10.907Z,992.91
2019-03-08T02:22:10.897Z,992.92
2019-03-08T02:23:10.912Z,992.86
2019-03-08T02:24:10.878Z,992.96
2019-03-08T02:25:10.860Z,992.97
2019-03-08T02:26:10.851Z,992.92
2019-03-08T02:27:10.883Z,992.92
2019-03-08T02:28:10.825Z,992.92
2019-03-08T02:29:10.818Z,992.97
2019-03-08T02:30:10.805Z,992.92
2019-03-08T02:31:10.794Z,992.89
2019-03-08T02:32:10.781Z,992.97
2019-03-08T02:33:10.799Z,992.91
2019-03-08T02:34:10.762Z,992.90
2019-03-08T02:35:10.749Z,992.94
2019-03-08T02:36:10.741Z,992.91
2019-03-08T02:37:10.732Z,993.03
2019-03-08T02:38:10.748Z,992.93
2019-03-08T02:39:10.703Z,992.98
2019-03-08T02:40:10.694Z,992.91
2019-03-08T02:41:10.685Z,992.92
2019-03-08T02:42:10.672Z,992.94
2019-03-08T02:43:10.684Z,993.00
2019-03-08T02:44:10.646Z,992.88
2019-03-08T02:45:10.643Z,992.95
2019-03-08T02:46:10.627Z,992.93
2019-03-08T02:47:10.617Z,992.94
2019-03-08T02:48:10.639Z,992.81
2019-03-08T02:49:10.625Z,992.89
2019-03-08T02:50:10.586Z,993.14
2019-03-08T02:51:10.573Z,993.01
2019-03-08T02:52:10.559Z,992.99
2019-03-08T02:53:10.592Z,992.96
2019-03-08T02:54:10.565Z,992.92
2019-03-08T02:55:10.526Z,992.99
2019-03-08T02:56:10.512Z,993.00
2019-03-08T02:57:10.503Z,993.08
2019-03-08T02:58:10.489Z,993.01
2019-03-08T02:59:10.503Z,992.98
2019-03-08T03:00:10.471Z,993.11
2019-03-08T03:01:10.456Z,992.98
2019-03-08T03:02:10.444Z,993.03
2019-03-08T03:03:10.432Z,993.03
2019-03-08T03:04:10.448Z,993.16
2019-03-08T03:05:10.415Z,993.05
2019-03-08T03:06:10.401Z,993.30
2019-03-08T03:07:10.395Z,993.23
2019-03-08T03:08:10.375Z,993.14
2019-03-08T03:09:10.392Z,993.12
2019-03-08T03:10:10.353Z,993.17
2019-03-08T03:11:10.350Z,993.29
2019-03-08T03:12:10.332Z,993.11
2019-03-08T03:13:10.318Z,993.24
2019-03-08T03:14:10.329Z,993.24
2019-03-08T03:15:10.298Z,993.45
2019-03-08T03:16:10.292Z,993.28
2019-03-08T03:17:10.272Z,993.37
2019-03-08T03:18:10.262Z,993.35
2019-03-08T03:19:10.275Z,993.38
2019-03-08T03:20:10.239Z,993.38
2019-03-08T03:21:10.232Z,993.47
2019-03-08T03:22:10.224Z,993.36
2019-03-08T03:23:10.203Z,993.46
2019-03-08T03:24:10.219Z,993.61
2019-03-08T03:25:10.179Z,993.60
2019-03-08T03:26:10.170Z,993.51
2019-03-08T03:27:10.160Z,993.60
2019-03-08T03:28:10.146Z,993.52
2019-03-08T03:29:10.163Z,993.69
2019-03-08T03:30:10.126Z,993.67
2019-03-08T03:31:10.121Z,993.78
2019-03-08T03:32:10.107Z,993.77
2019-03-08T03:33:10.092Z,993.87
2019-03-08T03:34:10.106Z,993.92
2019-03-08T03:35:10.245Z,993.77
2019-03-08T03:36:10.066Z,993.77
2019-03-08T03:37:10.044Z,993.82
2019-03-08T03:38:10.041Z,993.84
2019-03-08T03:39:10.026Z,993.84
2019-03-08T03:40:10.041Z,993.91
2019-03-08T03:41:10.005Z,993.82
2019-03-08T03:42:09.988Z,993.89
2019-03-08T03:43:09.978Z,993.78
2019-03-08T03:44:09.974Z,993.93
2019-03-08T03:45:09.988Z,993.93
2019-03-08T03:46:09.954Z,994.17
2019-03-08T03:47:09.936Z,994.10
2019-03-08T03:48:09.925Z,994.01
2019-03-08T03:49:09.908Z,993.76
2019-03-08T03:50:09.924Z,994.16
2019-03-08T03:51:09.893Z,994.13
2019-03-08T03:52:09.878Z,994.19
2019-03-08T03:53:09.866Z,994.17
2019-03-08T03:54:09.852Z,994.13
2019-03-08T03:55:09.882Z,994.26
2019-03-08T03:56:09.846Z,994.22
2019-03-08T03:57:09.821Z,994.41
2019-03-08T03:58:09.811Z,994.53
2019-03-08T03:59:09.798Z,994.52
2019-03-08T04:00:11.753Z,994.36
2019-03-08T04:01:09.811Z,994.35
2019-03-08T04:02:09.765Z,994.42
2019-03-08T04:03:09.753Z,994.51
2019-03-08T04:04:09.742Z,994.56
2019-03-08T04:05:09.733Z,994.65
2019-03-08T04:06:09.755Z,994.59
2019-03-08T04:07:09.706Z,994.52
2019-03-08T04:08:09.700Z,994.56
2019-03-08T04:09:09.688Z,994.61
2019-03-08T04:10:09.679Z,994.58
2019-03-08T04:11:09.694Z,994.64
2019-03-08T04:12:09.652Z,994.68
2019-03-08T04:13:09.650Z,994.59
2019-03-08T04:14:09.647Z,994.71
2019-03-08T04:15:09.621Z,994.71
2019-03-08T04:16:09.639Z,994.67
2019-03-08T04:17:09.621Z,994.87
2019-03-08T04:18:09.590Z,994.77
2019-03-08T04:19:09.573Z,994.82
2019-03-08T04:20:09.563Z,994.74
2019-03-08T04:21:09.583Z,994.94
2019-03-08T04:22:09.542Z,994.95
2019-03-08T04:23:09.529Z,994.85
2019-03-08T04:24:09.522Z,994.86
2019-03-08T04:25:09.506Z,994.94
2019-03-08T04:26:09.498Z,995.02
2019-03-08T04:27:09.511Z,994.86
2019-03-08T04:28:09.478Z,994.94
2019-03-08T04:29:09.463Z,995.09
2019-03-08T04:30:09.451Z,994.96
2019-03-08T04:31:09.439Z,994.90
2019-03-08T04:32:09.456Z,995.13
2019-03-08T04:33:09.414Z,995.08
2019-03-08T04:34:09.406Z,995.10
2019-03-08T04:35:09.390Z,995.06
2019-03-08T04:36:09.385Z,994.94
2019-03-08T04:37:09.416Z,995.10
2019-03-08T04:38:09.364Z,995.04
2019-03-08T04:39:09.347Z,995.00
2019-03-08T04:40:09.335Z,995.06
2019-03-08T04:41:09.329Z,995.20
2019-03-08T04:42:09.350Z,995.14
2019-03-08T04:43:09.302Z,995.20
2019-03-08T04:44:09.289Z,995.35
2019-03-08T04:45:09.279Z,995.29
2019-03-08T04:46:09.266Z,995.34
2019-03-08T04:47:09.281Z,995.31
2019-03-08T04:48:09.246Z,995.28
2019-03-08T04:49:09.238Z,995.42
2019-03-08T04:50:09.220Z,995.33
2019-03-08T04:51:09.208Z,995.41
2019-03-08T04:52:09.248Z,995.47
2019-03-08T04:53:09.193Z,995.51
2019-03-08T04:54:09.178Z,995.46
2019-03-08T04:55:09.168Z,995.49
2019-03-08T04:56:09.158Z,995.48
2019-03-08T04:57:09.140Z,995.50
2019-03-08T04:58:09.154Z,995.51
2019-03-08T04:59:09.120Z,995.50
2019-03-08T05:00:09.118Z,995.58
2019-03-08T05:01:09.106Z,995.70
2019-03-08T05:02:09.087Z,995.70
2019-03-08T05:03:09.103Z,995.58
2019-03-08T05:04:09.069Z,995.76
2019-03-08T05:05:09.193Z,995.67
2019-03-08T05:06:09.150Z,995.73
2019-03-08T05:07:09.120Z,995.67
2019-03-08T05:08:09.085Z,995.69
2019-03-08T05:09:09.238Z,995.71
2019-03-08T05:10:09.377Z,995.71
2019-03-08T05:11:09.312Z,995.77
2019-03-08T05:12:09.055Z,995.78
2019-03-08T05:13:09.194Z,995.78
2019-03-08T05:14:08.954Z,995.76
2019-03-08T05:15:08.965Z,995.84
2019-03-08T05:16:09.079Z,995.89
2019-03-08T05:17:08.921Z,995.89
2019-03-08T05:18:08.918Z,995.83
2019-03-08T05:19:08.922Z,995.82
2019-03-08T05:20:08.893Z,995.90
2019-03-08T05:21:08.879Z,995.91
2019-03-08T05:22:08.873Z,995.96
2019-03-08T05:23:08.855Z,995.91
2019-03-08T05:24:08.869Z,995.93
2019-03-08T05:25:08.834Z,995.99
2019-03-08T05:26:08.825Z,995.98
2019-03-08T05:27:08.817Z,996.04
2019-03-08T05:28:08.804Z,995.94
2019-03-08T05:29:08.813Z,996.08
2019-03-08T05:30:08.775Z,996.08
2019-03-08T05:31:08.765Z,996.13
2019-03-08T05:32:08.753Z,996.08
2019-03-08T05:33:08.754Z,996.16
2019-03-08T05:34:08.773Z,996.09
2019-03-08T05:35:08.730Z,996.05
2019-03-08T05:36:08.711Z,996.21
2019-03-08T05:37:08.699Z,996.20
2019-03-08T05:38:08.692Z,996.04
2019-03-08T05:39:08.733Z,996.16
2019-03-08T05:40:08.664Z,996.14
2019-03-08T05:41:08.650Z,996.40
2019-03-08T05:42:08.640Z,996.34
2019-03-08T05:43:08.629Z,996.29
2019-03-08T05:44:08.617Z,996.30
2019-03-08T05:45:08.647Z,996.38
2019-03-08T05:46:08.591Z,996.37
2019-03-08T05:47:08.600Z,996.46
2019-03-08T05:48:08.603Z,996.43
2019-03-08T05:49:08.588Z,996.51
2019-03-08T05:50:08.571Z,996.52
2019-03-08T05:51:08.536Z,996.62
2019-03-08T05:52:08.527Z,996.64
2019-03-08T05:53:08.519Z,996.71
2019-03-08T05:54:08.500Z,996.66
2019-03-08T05:55:08.516Z,996.71
2019-03-08T05:56:08.479Z,996.72
2019-03-08T05:57:08.483Z,996.68
2019-03-08T05:58:08.454Z,996.74
2019-03-08T05:59:08.447Z,996.89
2019-03-08T06:00:08.462Z,996.88
2019-03-08T06:01:08.421Z,996.89
2019-03-08T06:02:08.411Z,996.88
2019-03-08T06:03:08.414Z,997.02
2019-03-08T06:04:08.386Z,996.97
2019-03-08T06:05:08.381Z,997.08
2019-03-08T06:06:08.406Z,997.03
2019-03-08T06:07:08.360Z,997.10
2019-03-08T06:08:08.349Z,997.14
2019-03-08T06:09:08.333Z,997.16
2019-03-08T06:10:08.320Z,997.18
2019-03-08T06:11:08.334Z,997.24
2019-03-08T06:12:08.301Z,997.20
2019-03-08T06:13:08.287Z,997.22
2019-03-08T06:14:08.280Z,997.40
2019-03-08T06:15:08.268Z,997.30
2019-03-08T06:16:08.276Z,997.41
2019-03-08T06:17:08.244Z,997.51
2019-03-08T06:18:08.235Z,997.34
2019-03-08T06:19:08.216Z,997.44
2019-03-08T06:20:08.222Z,997.50
2019-03-08T06:21:08.224Z,997.51
2019-03-08T06:22:08.189Z,997.51
2019-03-08T06:23:08.193Z,997.57
2019-03-08T06:24:08.160Z,997.62
2019-03-08T06:25:08.161Z,997.61
2019-03-08T06:26:08.180Z,997.60
2019-03-08T06:27:08.134Z,997.66
2019-03-08T06:28:08.114Z,997.77
2019-03-08T06:29:08.117Z,997.68
2019-03-08T06:30:08.089Z,997.83
2019-03-08T06:31:08.123Z,997.81
2019-03-08T06:32:08.071Z,997.83
2019-03-08T06:33:08.061Z,997.91
2019-03-08T06:34:08.054Z,997.98
2019-03-08T06:35:08.034Z,997.93
2019-03-08T06:36:08.029Z,998.05
2019-03-08T06:37:08.035Z,997.98
2019-03-08T06:38:07.999Z,998.10
2019-03-08T06:39:08.001Z,998.06
2019-03-08T06:40:07.983Z,998.06
2019-03-08T06:41:07.970Z,998.15
2019-03-08T06:42:07.978Z,998.15
2019-03-08T06:43:07.943Z,998.22
2019-03-08T06:44:07.939Z,998.24
2019-03-08T06:45:07.929Z,998.24
2019-03-08T06:46:07.909Z,998.37
2019-03-08T06:47:07.927Z,998.40
2019-03-08T06:48:07.894Z,998.35
2019-03-08T06:49:07.898Z,998.44
2019-03-08T06:50:07.863Z,998.51
2019-03-08T06:51:07.860Z,998.42
2019-03-08T06:52:07.975Z,998.45
2019-03-08T06:53:07.836Z,998.53
2019-03-08T06:54:07.824Z,998.58
2019-03-08T06:55:07.818Z,998.54
2019-03-08T06:56:07.920Z,998.66
2019-03-08T06:57:07.790Z,998.66
2019-03-08T06:58:07.819Z,998.64
2019-03-08T06:59:07.766Z,998.82
2019-03-08T07:00:07.752Z,998.81
2019-03-08T07:01:07.741Z,998.89
2019-03-08T07:02:07.737Z,998.87
2019-03-08T07:03:07.754Z,998.95
2019-03-08T07:04:07.708Z,998.92
2019-03-08T07:05:07.697Z,998.97
2019-03-08T07:06:07.687Z,998.95
2019-03-08T07:07:07.676Z,999.01
2019-03-08T07:08:07.886Z,999.01
2019-03-08T07:09:07.650Z,999.02
2019-03-08T07:10:07.689Z,999.06
2019-03-08T07:11:07.628Z,999.05
2019-03-08T07:13:08.752Z,999.13
2019-03-08T07:14:07.635Z,999.15
2019-03-08T07:15:07.586Z,999.18
2019-03-08T07:16:13.122Z,999.24
2019-03-08T07:17:08.561Z,999.33
2019-03-08T07:18:12.748Z,999.36
2019-03-08T07:19:08.550Z,999.42
2019-03-08T07:20:07.538Z,999.39
2019-03-08T07:21:07.521Z,999.42
2019-03-08T07:22:07.507Z,999.42
2019-03-08T07:23:07.530Z,999.51
2019-03-08T07:24:07.485Z,999.46
2019-03-08T07:25:07.476Z,999.54
2019-03-08T07:26:07.469Z,999.54
2019-03-08T07:27:07.457Z,999.59
2019-03-08T07:28:07.441Z,999.66
2019-03-08T07:29:07.464Z,999.77
2019-03-08T07:30:07.421Z,999.79
2019-03-08T07:31:07.412Z,999.82
2019-03-08T07:32:07.407Z,999.81
2019-03-08T07:33:07.427Z,999.86
2019-03-08T07:34:07.412Z,999.94
2019-03-08T07:35:07.367Z,999.88
2019-03-08T07:36:07.363Z,999.96
2019-03-08T07:37:07.351Z,1000.03
2019-03-08T07:38:07.340Z,1000.08
2019-03-08T07:39:07.341Z,1000.07
2019-03-08T07:40:07.311Z,1000.04
2019-03-08T07:41:07.296Z,1000.13
2019-03-08T07:42:07.292Z,1000.20
2019-03-08T07:43:07.274Z,1000.23
2019-03-08T07:44:07.299Z,1000.22
2019-03-08T07:45:07.263Z,1000.34
2019-03-08T07:46:07.244Z,1000.36
2019-03-08T07:47:07.243Z,1000.41
2019-03-08T07:48:07.219Z,1000.45
2019-03-08T07:49:07.246Z,1000.53
2019-03-08T07:50:07.198Z,1000.42
2019-03-08T07:51:07.191Z,1000.38
2019-03-08T07:52:07.172Z,1000.47
2019-03-08T07:53:07.162Z,1000.43
2019-03-08T07:54:07.153Z,1000.48
2019-03-08T07:55:07.165Z,1000.50
2019-03-08T07:56:07.126Z,1000.46
2019-03-08T07:57:07.114Z,1000.49
2019-03-08T07:58:07.103Z,1000.55
2019-03-08T07:59:07.098Z,1000.53
2019-03-08T08:00:07.122Z,1000.60
2019-03-08T08:01:07.073Z,1000.47
2019-03-08T08:02:07.064Z,1000.62
2019-03-08T08:03:07.053Z,1000.69
2019-03-08T08:04:07.048Z,1000.67
2019-03-08T08:05:07.057Z,1000.86
2019-03-08T08:06:07.033Z,1000.84
2019-03-08T08:07:07.004Z,1000.81
2019-03-08T08:08:06.988Z,1000.90
2019-03-08T08:09:06.982Z,1000.85
2019-03-08T08:10:07.007Z,1000.95
2019-03-08T08:11:06.973Z,1000.97
2019-03-08T08:12:06.942Z,1000.97
2019-03-08T08:13:06.935Z,1000.97
2019-03-08T08:14:06.924Z,1001.08
2019-03-08T08:15:06.953Z,1001.03
2019-03-08T08:16:06.902Z,1001.17
2019-03-08T08:17:06.889Z,1001.17
2019-03-08T08:18:06.877Z,1001.12
2019-03-08T08:19:06.878Z,1001.16
2019-03-08T08:20:15.933Z,1001.12
2019-03-08T08:21:07.873Z,1001.11
2019-03-08T08:22:06.828Z,1001.22
2019-03-08T08:23:06.819Z,1001.08
2019-03-08T08:24:06.808Z,1001.12
2019-03-08T08:25:06.797Z,1001.13
2019-03-08T08:26:06.808Z,1001.17
2019-03-08T08:27:07.136Z,1001.34
2019-03-08T08:28:06.764Z,1001.14
2019-03-08T08:29:06.751Z,1001.35
2019-03-08T08:30:06.734Z,1001.30
2019-03-08T08:31:06.753Z,1001.32
2019-03-08T08:32:06.721Z,1001.35
2019-03-08T08:33:06.711Z,1001.37
2019-03-08T08:34:06.693Z,1001.42
2019-03-08T08:35:06.681Z,1001.42
2019-03-08T08:36:06.698Z,1001.41
2019-03-08T08:37:06.662Z,1001.47
2019-03-08T08:38:06.663Z,1001.51
2019-03-08T08:39:06.649Z,1001.50
2019-03-08T08:40:06.625Z,1001.57
2019-03-08T08:41:06.635Z,1001.60
2019-03-08T08:42:06.600Z,1001.58
2019-03-08T08:43:06.603Z,1001.76
2019-03-08T08:44:06.600Z,1001.66
2019-03-08T08:45:06.572Z,1001.67
2019-03-08T08:46:06.601Z,1001.76
2019-03-08T08:47:06.540Z,1001.75
2019-03-08T08:48:06.533Z,1001.76
2019-03-08T08:49:06.518Z,1001.77
2019-03-08T08:50:06.515Z,1001.76
2019-03-08T08:51:06.497Z,1001.74
2019-03-08T08:52:06.509Z,1001.86
2019-03-08T08:53:06.494Z,1001.90
2019-03-08T08:54:06.487Z,1001.85
2019-03-08T08:55:06.450Z,1001.97
2019-03-08T08:56:06.443Z,1001.92
2019-03-08T08:57:06.461Z,1002.05
2019-03-08T08:58:06.417Z,1002.04
2019-03-08T08:59:06.408Z,1002.13
2019-03-08T09:00:06.395Z,1002.12
2019-03-08T09:01:06.389Z,1002.15
2019-03-08T09:02:06.411Z,1002.14
2019-03-08T09:03:06.395Z,1002.21
2019-03-08T09:04:06.350Z,1002.22
2019-03-08T09:05:06.339Z,1002.21
2019-03-08T09:06:06.328Z,1002.27
2019-03-08T09:07:06.362Z,1002.25
2019-03-08T09:08:06.312Z,1002.30
2019-03-08T09:09:06.291Z,1002.30
2019-03-08T09:10:06.282Z,1002.45
2019-03-08T09:11:06.269Z,1002.37
2019-03-08T09:12:06.258Z,1002.42
2019-03-08T09:13:06.290Z,1002.52
2019-03-08T09:14:06.233Z,1002.47
2019-03-08T09:15:06.226Z,1002.57
2019-03-08T09:16:06.210Z,1002.63
2019-03-08T09:17:06.200Z,1002.61
2019-03-08T09:18:06.227Z,1002.59
2019-03-08T09:19:06.182Z,1002.64
2019-03-08T09:20:06.174Z,1002.64
2019-03-08T09:21:06.154Z,1002.66
2019-03-08T09:22:06.149Z,1002.64
2019-03-08T09:23:06.167Z,1002.64
2019-03-08T09:24:06.122Z,1002.71
2019-03-08T09:25:06.108Z,1002.74
2019-03-08T09:26:06.108Z,1002.78
2019-03-08T09:27:06.089Z,1002.74
2019-03-08T09:28:06.114Z,1002.79
2019-03-08T09:29:06.071Z,1002.76
2019-03-08T09:30:06.054Z,1002.78
2019-03-08T09:31:06.046Z,1002.76
2019-03-08T09:32:06.036Z,1002.79
2019-03-08T09:33:06.048Z,1002.78
2019-03-08T09:34:06.034Z,1002.80
2019-03-08T09:35:06.006Z,1002.81
2019-03-08T09:36:05.997Z,1002.98
2019-03-08T09:37:05.975Z,1002.78
2019-03-08T09:38:05.963Z,1002.79
2019-03-08T09:39:05.979Z,1002.81
2019-03-08T09:40:05.965Z,1002.83
2019-03-08T09:41:05.933Z,1002.87
2019-03-08T09:42:05.922Z,1002.90
2019-03-08T09:43:05.910Z,1002.85
2019-03-08T09:44:05.929Z,1002.95
2019-03-08T09:45:05.896Z,1002.96
2019-03-08T09:46:05.878Z,1003.05
2019-03-08T09:47:05.862Z,1003.07
2019-03-08T09:48:05.849Z,1002.97
2019-03-08T09:49:05.877Z,1003.02
2019-03-08T09:50:05.832Z,1003.09
2019-03-08T09:51:05.822Z,1003.04
2019-03-08T09:52:05.971Z,1003.05
2019-03-08T09:53:05.791Z,1003.04
2019-03-08T09:54:05.843Z,1003.05
2019-03-08T09:55:05.769Z,1003.14
2019-03-08T09:56:05.765Z,1003.12
2019-03-08T09:57:05.756Z,1003.13
2019-03-08T09:58:05.745Z,1003.11
2019-03-08T09:59:05.741Z,1003.18
2019-03-08T10:00:05.737Z,1003.22
2019-03-08T10:01:05.709Z,1003.27
2019-03-08T10:02:05.701Z,1003.32
2019-03-08T10:03:05.681Z,1003.20
2019-03-08T10:04:05.706Z,1003.29
2019-03-08T10:05:05.711Z,1003.27
2019-03-08T10:06:05.643Z,1003.26
2019-03-08T10:07:05.632Z,1003.32
2019-03-08T10:08:05.625Z,1003.24
2019-03-08T10:09:05.610Z,1003.23
2019-03-08T10:10:05.624Z,1003.22
2019-03-08T10:11:05.590Z,1003.25
2019-03-08T10:12:05.595Z,1003.33
2019-03-08T10:13:05.578Z,1003.21
2019-03-08T10:14:05.554Z,1003.19
2019-03-08T10:15:05.581Z,1003.23
2019-03-08T10:16:05.533Z,1003.28
2019-03-08T10:17:05.525Z,1003.25
2019-03-08T10:18:05.514Z,1003.22
2019-03-08T10:19:05.503Z,1003.30
2019-03-08T10:20:05.512Z,1003.26
2019-03-08T10:21:05.477Z,1003.33
2019-03-08T10:22:05.466Z,1003.46
2019-03-08T10:23:05.456Z,1003.36
2019-03-08T10:24:05.509Z,1003.39
2019-03-08T10:25:05.457Z,1003.49
2019-03-08T10:26:05.434Z,1003.48
2019-03-08T10:27:05.410Z,1003.58
2019-03-08T10:28:05.401Z,1003.56
2019-03-08T10:29:05.387Z,1003.58
2019-03-08T10:30:05.415Z,1003.66
2019-03-08T10:31:05.420Z,1003.65
2019-03-08T10:32:05.354Z,1003.61
2019-03-08T10:33:05.349Z,1003.71
2019-03-08T10:34:05.328Z,1003.65
2019-03-08T10:35:05.330Z,1003.68
2019-03-08T10:36:05.391Z,1003.77
2019-03-08T10:37:05.299Z,1003.75
2019-03-08T10:38:05.302Z,1003.82
2019-03-08T10:39:05.274Z,1003.87
2019-03-08T10:40:05.769Z,1003.84
2019-03-08T10:41:05.341Z,1003.83
2019-03-08T10:42:05.243Z,1003.96
2019-03-08T10:43:05.233Z,1003.84
2019-03-08T10:44:08.933Z,1003.83
2019-03-08T10:45:06.319Z,1003.88
2019-03-08T10:46:05.229Z,1003.86
2019-03-08T10:47:05.207Z,1003.90
2019-03-08T10:48:05.178Z,1003.93
2019-03-08T10:49:05.179Z,1003.93
2019-03-08T10:50:05.151Z,1004.03
2019-03-08T10:51:05.148Z,1003.99
2019-03-08T10:52:05.166Z,1004.00
2019-03-08T10:53:05.140Z,1004.04
2019-03-08T10:54:05.111Z,1004.07
2019-03-08T10:55:05.103Z,1004.08
2019-03-08T10:56:05.085Z,1004.07
2019-03-08T10:57:05.101Z,1004.04
2019-03-08T10:58:05.063Z,1004.08
2019-03-08T10:59:05.050Z,1004.01
2019-03-08T11:00:05.050Z,1004.17
2019-03-08T11:01:05.028Z,1004.15
2019-03-08T11:02:05.041Z,1004.14
2019-03-08T11:03:05.006Z,1004.17
2019-03-08T11:04:06.033Z,1004.19
2019-03-08T11:05:04.986Z,1004.23
2019-03-08T11:06:04.975Z,1004.21
2019-03-08T11:07:04.996Z,1004.31
2019-03-08T11:08:04.979Z,1004.29
2019-03-08T11:09:04.945Z,1004.33
2019-03-08T11:10:04.937Z,1004.36
2019-03-08T11:11:06.606Z,1004.37
2019-03-08T11:12:04.907Z,1004.42
2019-03-08T11:13:04.921Z,1004.39
2019-03-08T11:14:04.896Z,1004.45
2019-03-08T11:15:04.875Z,1004.46
2019-03-08T11:16:04.875Z,1004.48
2019-03-08T11:17:04.855Z,1004.50
2019-03-08T11:18:04.868Z,1004.50
2019-03-08T11:19:08.833Z,1004.51
2019-03-08T11:20:04.815Z,1004.52
2019-03-08T11:21:04.804Z,1004.54
2019-03-08T11:22:04.801Z,1004.56
2019-03-08T11:23:04.805Z,1004.56
2019-03-08T11:24:04.773Z,1004.56
2019-03-08T11:25:08.298Z,1004.58
2019-03-08T11:26:04.751Z,1004.58
2019-03-08T11:27:05.405Z,1004.59
2019-03-08T11:28:04.760Z,1004.47
2019-03-08T11:29:04.716Z,1004.47
2019-03-08T11:30:04.712Z,1004.53
2019-03-08T11:31:04.705Z,1004.54
2019-03-08T11:32:04.688Z,1004.56
2019-03-08T11:33:04.705Z,1004.61
2019-03-08T11:34:04.684Z,1004.67
2019-03-08T11:35:04.650Z,1004.67
2019-03-08T11:36:04.639Z,1004.67
2019-03-08T11:37:04.634Z,1004.74
2019-03-08T11:38:04.627Z,1004.73
2019-03-08T11:39:04.641Z,1004.66
2019-03-08T11:40:04.594Z,1004.62
2019-03-08T11:41:04.587Z,1004.67
2019-03-08T11:42:04.576Z,1004.65
2019-03-08T11:43:04.559Z,1004.62
2019-03-08T11:44:04.576Z,1004.73
2019-03-08T11:45:04.546Z,1004.81
2019-03-08T11:46:04.531Z,1004.70
2019-03-08T11:47:04.513Z,1004.75
2019-03-08T11:48:04.509Z,1004.80
2019-03-08T11:49:04.537Z,1004.83
2019-03-08T11:50:04.483Z,1004.82
2019-03-08T11:51:04.484Z,1004.79
2019-03-08T11:52:04.466Z,1004.89
2019-03-08T11:53:04.460Z,1004.94
2019-03-08T11:54:04.582Z,1004.99
2019-03-08T11:55:04.426Z,1005.07
2019-03-08T11:56:04.417Z,1005.17
2019-03-08T11:57:04.413Z,1005.17
2019-03-08T11:58:04.501Z,1005.32
2019-03-08T11:59:04.418Z,1005.25
2019-03-08T12:00:04.415Z,1005.20
2019-03-08T12:01:04.356Z,1005.31
2019-03-08T12:02:05.617Z,1005.30
2019-03-08T12:03:04.339Z,1005.35
2019-03-08T12:04:04.334Z,1005.38
2019-03-08T12:05:04.330Z,1005.30
2019-03-08T12:06:04.296Z,1005.40
2019-03-08T12:07:04.287Z,1005.37
2019-03-08T12:08:04.295Z,1005.46
2019-03-08T12:09:04.276Z,1005.46
2019-03-08T12:10:04.289Z,1005.53
2019-03-08T12:11:04.248Z,1005.63
2019-03-08T12:12:04.240Z,1005.70
2019-03-08T12:13:04.235Z,1005.61
2019-03-08T12:14:04.211Z,1005.61
2019-03-08T12:15:04.332Z,1005.63
2019-03-08T12:16:04.192Z,1005.72
2019-03-08T12:17:04.182Z,1005.67
2019-03-08T12:18:04.164Z,1005.68
2019-03-08T12:19:04.161Z,1005.66
2019-03-08T12:20:04.189Z,1005.57